首页
METAR-TAF:

METAR-TAF

机场 :

埃斯基谢希尔, 土耳其

纬度: 39-47N, 经度: 030-34E, 海拔: 785米

当前天气观测

该预报发布于15分钟前的03:08 UTC
静风
温度 11°C
湿度 94%
气压 1014 hPa
能见度10公里或以上
多云层高于3000英尺
多云层高于10000英尺

METAR: LTBI 010308Z 00000KT 9999 BKN030 BKN100 11/10 Q1014 RESHRA NOSIG RMK RWY08 VRB02KT

时间: 06:23 (03:23 UTC)

预报

该预报发布于1小时和43分钟前的01:40 UTC
预报有效从01日的 03点(UTC)到 01日的 12点(UTC)
风速8节,风向西转西北
能见度10公里或以上
多云层高于3000英尺
多云层高于10000英尺

TAF: LTBI 010140Z 0103/0112 30008KT 9999 BKN030 BKN100

超过4000个机场的气象观测和天气预报(METAR&TAF报告)。

可查询的气象台以黄色和红色小点在地图上表示。

将鼠标移到小点上方,可查看气象台名称。

然后点击查看天气观测和预报。

如需切换地图:点击带黑十字的绿色按钮放大地图;点击带横线的绿色按钮缩小地图;或者点击绿色箭头查看邻近地区的地图。


METAR-TAF: